createdAt,value
2022-08-08T00:01:14.429Z,15.2
2022-08-08T00:03:28.426Z,15.2
2022-08-08T00:05:20.766Z,15.2
2022-08-08T00:07:23.939Z,15.2
2022-08-08T00:09:27.635Z,15.2
2022-08-08T00:11:46.720Z,15.1
2022-08-08T00:14:15.879Z,15.2
2022-08-08T00:15:57.018Z,15.1
2022-08-08T00:18:02.478Z,15.2
2022-08-08T00:19:46.675Z,15.1
2022-08-08T00:22:14.480Z,15.1
2022-08-08T00:34:36.762Z,15.2
2022-08-08T00:36:42.903Z,15.1
2022-08-08T00:42:52.690Z,15.2
2022-08-08T00:44:55.853Z,15.1
2022-08-08T00:49:02.198Z,15.1
2022-08-08T00:53:13.969Z,14.9
2022-08-08T00:55:11.731Z,14.9
2022-08-08T00:57:23.509Z,14.9
2022-08-08T00:59:44.538Z,15
2022-08-08T01:01:37.664Z,14.9
2022-08-08T01:04:02.740Z,14.9
2022-08-08T01:05:58.282Z,15
2022-08-08T01:07:55.676Z,14.9
2022-08-08T01:09:41.445Z,14.9
2022-08-08T01:11:44.568Z,14.9
2022-08-08T01:15:54.299Z,15
2022-08-08T01:16:54.132Z,14.9
2022-08-08T01:18:57.338Z,14.8
2022-08-08T01:21:00.483Z,14.9
2022-08-08T01:23:03.650Z,14.8
2022-08-08T01:25:14.411Z,14.9
2022-08-08T01:27:16.202Z,14.8
2022-08-08T01:29:16.393Z,15
2022-08-08T01:31:34.303Z,15
2022-08-08T01:33:24.103Z,15
2022-08-08T01:35:29.616Z,15.1
2022-08-08T01:37:57.119Z,15.1
2022-08-08T01:39:36.086Z,15
2022-08-08T01:41:38.671Z,14.9
2022-08-08T01:43:41.861Z,15
2022-08-08T01:45:45.008Z,15
2022-08-08T01:49:56.625Z,14.9
2022-08-08T01:52:47.169Z,14.9
2022-08-08T01:55:15.109Z,14.7
2022-08-08T01:56:28.237Z,14.6
2022-08-08T01:58:12.000Z,14.6
2022-08-08T02:02:34.274Z,14.6
2022-08-08T02:08:26.390Z,14.5
2022-08-08T02:12:32.736Z,14.4
2022-08-08T02:13:53.652Z,14.6
2022-08-08T02:15:39.153Z,14.5
2022-08-08T02:17:43.427Z,14.6
2022-08-08T02:20:07.741Z,14.4
2022-08-08T02:21:51.860Z,14.5
2022-08-08T02:23:55.021Z,14.4
2022-08-08T02:28:01.368Z,14.5
2022-08-08T02:34:14.998Z,14.2
2022-08-08T02:36:17.286Z,14.1
2022-08-08T02:40:23.717Z,14.1
2022-08-08T02:42:38.323Z,14.1
2022-08-08T02:46:33.126Z,14.2
2022-08-08T02:48:36.307Z,14.1
2022-08-08T02:50:47.117Z,14.3
2022-08-08T02:52:50.740Z,14.2
2022-08-08T02:56:52.218Z,14.2
2022-08-08T02:58:55.381Z,14.2
2022-08-08T03:03:01.720Z,14.2
2022-08-08T03:07:11.267Z,14.1
2022-08-08T03:10:32.486Z,14
2022-08-08T03:12:36.323Z,14
2022-08-08T03:15:57.190Z,14.1
2022-08-08T03:16:35.217Z,14.1
2022-08-08T03:18:33.539Z,13.8
2022-08-08T03:20:37.561Z,13.9
2022-08-08T03:22:43.189Z,13.9
2022-08-08T03:24:44.234Z,14
2022-08-08T03:26:47.069Z,13.8
2022-08-08T03:33:07.634Z,14
2022-08-08T03:35:02.989Z,14
2022-08-08T03:37:20.150Z,14
2022-08-08T03:42:12.930Z,13.8
2022-08-08T03:46:07.205Z,14
2022-08-08T03:47:25.231Z,13.9
2022-08-08T03:49:59.048Z,14
2022-08-08T03:51:47.144Z,13.8
2022-08-08T03:53:42.591Z,13.7
2022-08-08T03:55:56.267Z,13.7
2022-08-08T03:58:33.578Z,13.6
2022-08-08T04:03:59.302Z,13.6
2022-08-08T04:10:32.032Z,13.6
2022-08-08T04:12:31.624Z,13.6
2022-08-08T04:20:47.145Z,13.8
2022-08-08T04:22:51.379Z,13.8
2022-08-08T04:37:17.230Z,13.7
2022-08-08T04:40:04.157Z,13.7
2022-08-08T04:41:23.646Z,13.7
2022-08-08T04:43:31.672Z,13.9
2022-08-08T04:45:33.507Z,14
2022-08-08T04:47:36.719Z,14.1
2022-08-08T04:49:58.495Z,14.2
2022-08-08T04:51:55.137Z,14.1
2022-08-08T04:54:36.504Z,14.1
2022-08-08T04:55:56.243Z,14.1
2022-08-08T04:57:55.328Z,14.3
2022-08-08T04:59:59.645Z,14.3
2022-08-08T05:02:01.760Z,14.5
2022-08-08T05:03:05.583Z,14.7
2022-08-08T05:05:08.036Z,14.6
2022-08-08T05:07:11.189Z,14.7
2022-08-08T05:09:15.847Z,14.7
2022-08-08T05:11:22.476Z,14.6
2022-08-08T05:16:47.524Z,14.8
2022-08-08T05:17:37.322Z,14.9
2022-08-08T05:20:09.313Z,15
2022-08-08T05:21:43.795Z,15
2022-08-08T05:23:41.239Z,15.1
2022-08-08T05:25:46.707Z,15.2
2022-08-08T05:27:49.299Z,15.3
2022-08-08T05:29:52.623Z,15.4
2022-08-08T05:32:03.874Z,15.5
2022-08-08T05:33:58.792Z,15.6
2022-08-08T05:36:01.958Z,15.7
2022-08-08T05:38:05.133Z,15.9
2022-08-08T05:40:11.500Z,16
2022-08-08T05:42:14.675Z,16.2
2022-08-08T05:44:17.723Z,16.3
2022-08-08T05:46:20.783Z,16.7
2022-08-08T05:50:26.906Z,17
2022-08-08T05:52:35.433Z,17.3
2022-08-08T05:54:50.732Z,17.5
2022-08-08T05:56:41.996Z,17.5
2022-08-08T05:58:56.651Z,17.6
2022-08-08T06:10:06.242Z,18
2022-08-08T06:12:06.812Z,18.2
2022-08-08T06:14:12.878Z,18.3
2022-08-08T06:16:12.849Z,18.5
2022-08-08T06:18:20.301Z,18.4
2022-08-08T06:20:19.673Z,18.5
2022-08-08T06:22:33.151Z,18.7
2022-08-08T06:24:31.015Z,18.8
2022-08-08T06:30:37.172Z,19.4
2022-08-08T06:32:40.190Z,19.7
2022-08-08T06:34:43.224Z,20.1
2022-08-08T06:36:53.582Z,19.8
2022-08-08T06:38:52.395Z,19.9
2022-08-08T06:40:55.383Z,19.9
2022-08-08T06:42:58.394Z,19.7
2022-08-08T06:45:01.362Z,20
2022-08-08T06:47:04.375Z,20.2
2022-08-08T06:49:07.394Z,20.4
2022-08-08T06:53:20.046Z,20.8
2022-08-08T06:55:19.482Z,20.7
2022-08-08T07:04:47.899Z,21.1
2022-08-08T07:10:47.976Z,21.9
2022-08-08T07:16:56.427Z,21.5
2022-08-08T07:21:05.469Z,21
2022-08-08T07:23:08.415Z,21
2022-08-08T07:29:54.574Z,22.1
2022-08-08T07:35:29.226Z,22.8
2022-08-08T07:37:55.678Z,23.4
2022-08-08T07:39:35.373Z,23.9
2022-08-08T07:42:03.622Z,23.9
2022-08-08T07:43:40.936Z,24.3
2022-08-08T07:46:05.133Z,24.9
2022-08-08T07:47:51.688Z,24.9
2022-08-08T07:49:52.858Z,25.1
2022-08-08T07:51:55.773Z,25.9
2022-08-08T07:54:26.923Z,26.1
2022-08-08T07:56:35.420Z,26.1
2022-08-08T07:58:28.750Z,25.9
2022-08-08T08:00:34.900Z,27.2
2022-08-08T08:02:38.762Z,27.4
2022-08-08T08:04:41.201Z,28.1
2022-08-08T08:06:43.488Z,27.2
2022-08-08T08:08:50.207Z,28.6
2022-08-08T08:10:49.273Z,28.5
2022-08-08T08:12:52.169Z,28.8
2022-08-08T08:17:01.048Z,28.3
2022-08-08T08:19:03.930Z,28.2
2022-08-08T08:21:18.589Z,27.8
2022-08-08T08:27:15.416Z,28.4
2022-08-08T08:33:27.160Z,29.2
2022-08-08T08:40:00.232Z,29.5
2022-08-08T08:41:38.518Z,29.3
2022-08-08T08:45:47.349Z,25.4
2022-08-08T08:50:56.002Z,22.8
2022-08-08T08:55:01.719Z,25.3
2022-08-08T08:57:07.780Z,25.2
2022-08-08T08:59:15.589Z,25.6
2022-08-08T09:01:14.685Z,27.5
2022-08-08T09:03:16.242Z,26.1
2022-08-08T09:05:48.915Z,23.4
2022-08-08T09:07:21.978Z,23
2022-08-08T09:09:35.221Z,22.8
2022-08-08T09:11:33.166Z,22.8
2022-08-08T09:13:33.748Z,24.1
2022-08-08T09:15:41.002Z,23.9
2022-08-08T09:17:41.569Z,22.9
2022-08-08T09:21:57.303Z,22.9
2022-08-08T09:21:58.127Z,25
2022-08-08T09:23:48.162Z,26.2
2022-08-08T09:25:57.711Z,27.2
2022-08-08T09:27:58.557Z,27.8
2022-08-08T09:29:59.961Z,27.3
2022-08-08T09:32:02.836Z,26.5
2022-08-08T09:34:30.819Z,26.5
2022-08-08T09:36:08.552Z,26.5
2022-08-08T09:38:17.965Z,27.3
2022-08-08T09:40:18.846Z,27.9
2022-08-08T09:42:23.004Z,27.6
2022-08-08T09:44:34.004Z,27.6
2022-08-08T09:45:55.311Z,26
2022-08-08T09:48:09.966Z,25.4
2022-08-08T09:49:42.146Z,25.8
2022-08-08T09:52:01.473Z,24.4
2022-08-08T09:53:59.783Z,24.1
2022-08-08T09:56:05.324Z,24
2022-08-08T09:57:46.658Z,23.7
2022-08-08T10:00:07.613Z,23.7
2022-08-08T10:01:58.188Z,23.5
2022-08-08T10:03:56.090Z,23.7
2022-08-08T10:05:57.338Z,23.5
2022-08-08T10:08:03.261Z,23.4
2022-08-08T10:10:07.110Z,23.4
2022-08-08T10:12:26.575Z,23.9
2022-08-08T10:14:28.563Z,24.9
2022-08-08T10:18:25.498Z,24.8
2022-08-08T10:20:22.523Z,24.6
2022-08-08T10:22:26.371Z,23.8
2022-08-08T10:24:35.264Z,23.6
2022-08-08T10:26:57.020Z,23.3
2022-08-08T10:28:36.499Z,23.2
2022-08-08T10:31:00.193Z,23.3
2022-08-08T10:32:48.410Z,23.3
2022-08-08T10:34:45.109Z,23.7
2022-08-08T10:36:51.146Z,25.1
2022-08-08T10:38:54.022Z,25.3
2022-08-08T10:40:56.920Z,24.8
2022-08-08T10:46:05.698Z,23.9
2022-08-08T10:48:08.611Z,23.8
2022-08-08T10:54:20.405Z,24.2
2022-08-08T11:02:32.163Z,25.1
2022-08-08T11:04:39.027Z,25.2
2022-08-08T11:06:41.748Z,24.9
2022-08-08T11:08:53.199Z,24.8
2022-08-08T11:10:46.376Z,24.4
2022-08-08T11:13:01.871Z,24.6
2022-08-08T11:14:52.110Z,25.3
2022-08-08T11:16:54.982Z,25.9
2022-08-08T11:19:01.234Z,25.9
2022-08-08T11:21:08.819Z,25.5
2022-08-08T11:23:06.870Z,25.1
2022-08-08T11:25:13.873Z,25.2
2022-08-08T11:27:19.564Z,25
2022-08-08T11:29:15.885Z,24.6
2022-08-08T11:31:18.233Z,24.6
2022-08-08T11:33:53.015Z,24.6
2022-08-08T11:35:38.252Z,24.4
2022-08-08T11:42:01.794Z,25.6
2022-08-08T11:44:04.599Z,25.9
2022-08-08T11:48:13.389Z,26.1
2022-08-08T11:54:32.502Z,25.4
2022-08-08T12:00:33.209Z,25.3
2022-08-08T12:06:41.554Z,25.1
2022-08-08T12:08:44.350Z,25.3
2022-08-08T12:14:56.670Z,24.7
2022-08-08T12:21:04.347Z,24.7
2022-08-08T12:23:07.179Z,24.1
2022-08-08T12:25:10.054Z,24.5
2022-08-08T12:27:16.725Z,24.7
2022-08-08T12:29:19.230Z,24.8
2022-08-08T12:31:21.641Z,25.3
2022-08-08T12:33:24.496Z,26.1
2022-08-08T12:34:35.859Z,26.4
2022-08-08T12:36:30.339Z,26.4
2022-08-08T12:38:33.167Z,25.9
2022-08-08T12:40:36.068Z,25.5
2022-08-08T12:42:47.753Z,25.6
2022-08-08T12:44:48.421Z,25.3
2022-08-08T12:46:47.525Z,25.3
2022-08-08T12:49:05.408Z,24.9
2022-08-08T12:50:53.093Z,25.3
2022-08-08T12:52:55.962Z,25
2022-08-08T12:54:58.724Z,24.9
2022-08-08T12:57:04.696Z,25.1
2022-08-08T12:59:07.508Z,25.2
2022-08-08T13:01:11.157Z,25.6
2022-08-08T13:03:16.313Z,25.7
2022-08-08T13:05:26.508Z,25.1
2022-08-08T13:07:18.799Z,25
2022-08-08T13:09:21.610Z,24.8
2022-08-08T13:11:28.619Z,24.9
2022-08-08T13:13:35.080Z,24.8
2022-08-08T13:15:33.243Z,25
2022-08-08T13:18:08.262Z,25.1
2022-08-08T13:19:50.045Z,25.5
2022-08-08T13:21:53.159Z,25.6
2022-08-08T13:25:59.391Z,26
2022-08-08T13:27:54.558Z,26.2
2022-08-08T13:29:56.148Z,25.8
2022-08-08T13:30:59.137Z,25.6
2022-08-08T13:33:02.280Z,25.6
2022-08-08T13:35:04.770Z,25.3
2022-08-08T13:37:10.780Z,25.2
2022-08-08T13:39:13.600Z,25.2
2022-08-08T13:41:17.398Z,25
2022-08-08T13:43:19.248Z,25.2
2022-08-08T13:45:24.049Z,25.2
2022-08-08T13:47:24.837Z,25.2
2022-08-08T13:50:35.236Z,24.9
2022-08-08T13:51:37.388Z,24.5
2022-08-08T13:53:36.884Z,24.7
2022-08-08T13:55:39.331Z,24.8
2022-08-08T13:58:07.004Z,25.1
2022-08-08T13:59:48.474Z,25
2022-08-08T14:01:52.805Z,24.8
2022-08-08T14:03:54.465Z,24.6
2022-08-08T14:06:00.387Z,24.4
2022-08-08T14:08:01.787Z,24.4
2022-08-08T14:10:10.037Z,24.2
2022-08-08T14:12:05.354Z,23.8
2022-08-08T14:14:09.192Z,24
2022-08-08T14:16:16.397Z,23.9
2022-08-08T14:18:35.743Z,23.5
2022-08-08T14:22:22.888Z,23.6
2022-08-08T14:24:25.778Z,23.6
2022-08-08T14:27:33.408Z,23.4
2022-08-08T14:29:39.369Z,23.6
2022-08-08T14:35:49.737Z,23.8
2022-08-08T14:37:59.835Z,24.1
2022-08-08T14:39:53.769Z,24.4
2022-08-08T14:41:55.802Z,24.2
2022-08-08T14:44:09.540Z,24.2
2022-08-08T14:46:02.711Z,24.3
2022-08-08T14:48:04.507Z,24.4
2022-08-08T14:52:13.447Z,24.3
2022-08-08T14:54:21.738Z,24.8
2022-08-08T14:58:22.157Z,25
2022-08-08T15:00:25.054Z,25.1
2022-08-08T15:04:33.987Z,27.3
2022-08-08T15:06:37.296Z,28.2
2022-08-08T15:08:39.751Z,28.7
2022-08-08T15:10:42.615Z,29.1
2022-08-08T15:12:45.460Z,26.8
2022-08-08T15:16:51.143Z,24.6
2022-08-08T15:18:57.143Z,24.6
2022-08-08T15:23:02.997Z,24.2
2022-08-08T15:25:29.141Z,24.2
2022-08-08T15:28:05.249Z,24.3
2022-08-08T15:29:31.559Z,24.1
2022-08-08T15:32:03.212Z,24.1
2022-08-08T15:33:59.438Z,24
2022-08-08T15:35:43.260Z,23.9
2022-08-08T15:37:46.120Z,24.1
2022-08-08T15:39:49.118Z,23.9
2022-08-08T15:41:51.870Z,24
2022-08-08T15:44:00.670Z,23.9
2022-08-08T15:46:00.770Z,24.4
2022-08-08T15:48:05.481Z,24.6
2022-08-08T15:50:16.779Z,24.5
2022-08-08T15:52:09.410Z,24.2
2022-08-08T15:54:18.762Z,24.3
2022-08-08T15:56:15.186Z,24.4
2022-08-08T15:58:18.069Z,24.1
2022-08-08T16:00:26.860Z,24
2022-08-08T16:02:30.929Z,24
2022-08-08T16:04:29.972Z,23.9
2022-08-08T16:06:32.826Z,23.6
2022-08-08T16:08:35.706Z,23.8
2022-08-08T16:13:10.987Z,23.6
2022-08-08T16:13:12.068Z,23.6
2022-08-08T16:14:52.740Z,23.6
2022-08-08T16:16:50.658Z,23.7
2022-08-08T16:18:57.639Z,23.7
2022-08-08T16:20:00.720Z,23.5
2022-08-08T16:22:00.868Z,23.7
2022-08-08T16:24:03.780Z,25.9
2022-08-08T16:26:13.139Z,25.7
2022-08-08T16:28:22.709Z,24.8
2022-08-08T16:30:32.630Z,24.7
2022-08-08T16:32:20.037Z,24.5
2022-08-08T16:34:21.464Z,24.3
2022-08-08T16:36:33.355Z,24.6
2022-08-08T16:40:30.231Z,24.8
2022-08-08T16:42:38.913Z,24.2
2022-08-08T16:44:39.105Z,24
2022-08-08T16:46:46.108Z,24
2022-08-08T16:48:44.899Z,24
2022-08-08T16:50:47.822Z,23.5
2022-08-08T16:55:04.694Z,23.5
2022-08-08T16:55:24.038Z,23.5
2022-08-08T16:57:03.639Z,23.4
2022-08-08T16:59:02.601Z,23.4
2022-08-08T17:01:06.175Z,23.2
2022-08-08T17:03:08.430Z,23.4
2022-08-08T17:05:13.069Z,23.4
2022-08-08T17:07:14.245Z,23.5
2022-08-08T17:09:23.207Z,23.4
2022-08-08T17:11:28.364Z,23.3
2022-08-08T17:15:34.611Z,23.4
2022-08-08T17:16:32.141Z,23.5
2022-08-08T17:18:35.051Z,23.5
2022-08-08T17:20:39.507Z,23.6
2022-08-08T17:22:42.527Z,23.5
2022-08-08T17:24:53.747Z,23.4
2022-08-08T17:26:49.937Z,23.3
2022-08-08T17:28:52.857Z,23.1
2022-08-08T17:30:55.808Z,22.8
2022-08-08T17:34:37.497Z,22.8
2022-08-08T17:35:53.642Z,22.7
2022-08-08T17:37:09.301Z,22.7
2022-08-08T17:39:22.804Z,22.6
2022-08-08T17:41:13.652Z,22.6
2022-08-08T17:43:16.599Z,22.8
2022-08-08T17:45:23.225Z,22.6
2022-08-08T17:47:24.039Z,22.5
2022-08-08T17:49:25.440Z,22.4
2022-08-08T17:51:28.395Z,22.4
2022-08-08T17:53:42.989Z,22.5
2022-08-08T17:56:04.942Z,22.6
2022-08-08T17:57:40.467Z,22.5
2022-08-08T17:59:46.097Z,22.2
2022-08-08T18:01:49.562Z,22.2
2022-08-08T18:05:52.240Z,22.5
2022-08-08T18:08:02.881Z,22.5
2022-08-08T18:10:01.283Z,22.5
2022-08-08T18:12:04.248Z,22.5
2022-08-08T18:13:07.444Z,22.4
2022-08-08T18:15:10.250Z,22.4
2022-08-08T18:17:17.503Z,22.5
2022-08-08T18:19:16.183Z,22.4
2022-08-08T18:21:25.190Z,22.3
2022-08-08T18:23:25.239Z,22.1
2022-08-08T18:25:37.007Z,22.2
2022-08-08T18:29:34.615Z,22.1
2022-08-08T18:35:48.357Z,21.8
2022-08-08T18:37:48.561Z,21.9
2022-08-08T18:39:46.365Z,21.9
2022-08-08T18:43:52.211Z,21.8
2022-08-08T18:46:55.942Z,21.5
2022-08-08T18:50:04.327Z,21.6
2022-08-08T18:52:07.265Z,21.5
2022-08-08T18:54:24.805Z,21.3
2022-08-08T18:56:13.237Z,21.3
2022-08-08T18:58:16.250Z,21.3
2022-08-08T19:00:20.244Z,21.1
2022-08-08T19:02:27.333Z,21.2
2022-08-08T19:04:28.388Z,20.9
2022-08-08T19:06:31.354Z,20.9
2022-08-08T19:08:34.391Z,20.9
2022-08-08T19:10:58.490Z,20.9
2022-08-08T19:13:01.211Z,20.9
2022-08-08T19:15:04.230Z,20.8
2022-08-08T19:17:10.779Z,20.6
2022-08-08T19:19:14.194Z,20.8
2022-08-08T19:21:29.089Z,20.8
2022-08-08T19:23:19.390Z,20.7
2022-08-08T19:27:57.168Z,20.5
2022-08-08T19:29:28.410Z,20.5
2022-08-08T19:31:34.980Z,20.3
2022-08-08T19:33:39.604Z,20.2
2022-08-08T19:35:45.515Z,20.2
2022-08-08T19:37:47.028Z,20.3
2022-08-08T19:39:50.936Z,20.3
2022-08-08T19:44:03.467Z,20.2
2022-08-08T19:46:00.896Z,20.1
2022-08-08T19:50:04.758Z,20.1
2022-08-08T19:54:10.778Z,20
2022-08-08T19:56:13.799Z,19.9
2022-08-08T20:00:29.077Z,19.8
2022-08-08T20:04:29.471Z,19.8
2022-08-08T20:08:29.074Z,19.6
2022-08-08T20:09:45.089Z,19.5
2022-08-08T20:11:43.025Z,19.5
2022-08-08T20:17:53.189Z,19.5
2022-08-08T20:19:56.162Z,19.4
2022-08-08T20:24:02.315Z,19.3
2022-08-08T20:26:05.191Z,19.3
2022-08-08T20:30:53.039Z,19.1
2022-08-08T20:32:17.334Z,19.2
2022-08-08T20:34:31.194Z,19
2022-08-08T20:36:23.345Z,18.8
2022-08-08T20:40:39.026Z,18.8
2022-08-08T21:02:12.648Z,18.3
2022-08-08T21:04:14.230Z,18.4
2022-08-08T21:06:15.860Z,18.2
2022-08-08T21:08:36.626Z,18.3
2022-08-08T21:10:28.319Z,18.1
2022-08-08T21:12:32.434Z,18.2
2022-08-08T21:14:34.679Z,18
2022-08-08T21:16:33.275Z,17.9
2022-08-08T21:18:36.300Z,17.9
2022-08-08T21:20:39.372Z,17.9
2022-08-08T21:22:42.363Z,17.9
2022-08-08T21:24:53.452Z,17.9
2022-08-08T21:26:51.570Z,17.9
2022-08-08T21:29:00.470Z,17.8
2022-08-08T21:30:57.636Z,17.6
2022-08-08T21:33:00.683Z,17.6
2022-08-08T21:36:14.526Z,17.6
2022-08-08T21:37:11.294Z,17.7
2022-08-08T21:39:14.718Z,17.7
2022-08-08T21:43:19.018Z,17.5
2022-08-08T21:48:02.519Z,17.5
2022-08-08T21:48:04.027Z,17.5
2022-08-08T21:49:28.183Z,17.4
2022-08-08T21:54:16.914Z,17.4
2022-08-08T21:54:31.289Z,17.4
2022-08-08T21:56:19.911Z,17.5
2022-08-08T21:58:05.735Z,17.5
2022-08-08T21:58:54.732Z,17.4
2022-08-08T22:00:49.612Z,17.4
2022-08-08T22:02:52.659Z,17.3
2022-08-08T22:09:08.708Z,17.3
2022-08-08T22:11:45.042Z,17.2
2022-08-08T22:13:17.604Z,17.2
2022-08-08T22:15:15.584Z,17.3
2022-08-08T22:17:19.243Z,17.1
2022-08-08T22:25:41.649Z,17.2
2022-08-08T22:27:55.973Z,17.3
2022-08-08T22:29:58.839Z,17.2
2022-08-08T22:31:43.253Z,17.3
2022-08-08T22:34:12.380Z,17.3
2022-08-08T22:36:04.932Z,17.2
2022-08-08T22:37:55.497Z,17.2
2022-08-08T22:40:01.381Z,17.2
2022-08-08T22:42:01.568Z,17.2
2022-08-08T22:44:06.185Z,17
2022-08-08T22:54:30.756Z,16.9
2022-08-08T22:56:47.526Z,16.8
2022-08-08T22:58:51.258Z,16.8
2022-08-08T23:00:54.551Z,16.8
2022-08-08T23:02:59.483Z,16.8
2022-08-08T23:05:05.339Z,16.9
2022-08-08T23:07:05.550Z,16.9
2022-08-08T23:09:09.560Z,16.8
2022-08-08T23:11:13.215Z,16.9
2022-08-08T23:13:14.729Z,16.9
2022-08-08T23:16:38.720Z,16.9
2022-08-08T23:17:23.982Z,16.8
2022-08-08T23:19:26.988Z,16.7
2022-08-08T23:21:30.046Z,16.7
2022-08-08T23:23:33.103Z,16.6
2022-08-08T23:25:37.463Z,16.7
2022-08-08T23:27:46.096Z,16.5
2022-08-08T23:31:48.430Z,16.4
2022-08-08T23:36:07.502Z,16.4
2022-08-08T23:38:03.090Z,16.4
2022-08-08T23:40:00.700Z,16.2
2022-08-08T23:44:06.753Z,16.1
2022-08-08T23:49:02.235Z,16.1
2022-08-08T23:50:30.720Z,16.1
2022-08-08T23:52:05.069Z,16.3
2022-08-08T23:54:06.265Z,16.1
2022-08-08T23:55:28.336Z,16.1
2022-08-08T23:57:51.911Z,16
2022-08-08T23:59:37.578Z,16.1
